sensor_id;sensor_type;location;lat;lon;timestamp;temperature;humidity
9103;DHT22;4587;51.434;6.788;2023-05-19T00:01:13;11.50;99.90
9103;DHT22;4587;51.434;6.788;2023-05-19T00:03:52;11.50;99.90
9103;DHT22;4587;51.434;6.788;2023-05-19T00:06:28;11.60;99.90
9103;DHT22;4587;51.434;6.788;2023-05-19T00:09:06;11.50;99.90
9103;DHT22;4587;51.434;6.788;2023-05-19T00:11:33;11.50;99.90
9103;DHT22;4587;51.434;6.788;2023-05-19T00:14:04;11.40;99.90
9103;DHT22;4587;51.434;6.788;2023-05-19T00:16:30;11.40;99.90
9103;DHT22;4587;51.434;6.788;2023-05-19T00:18:57;11.40;99.90
9103;DHT22;4587;51.434;6.788;2023-05-19T00:21:24;11.40;99.90
9103;DHT22;4587;51.434;6.788;2023-05-19T00:23:50;11.30;99.90
9103;DHT22;4587;51.434;6.788;2023-05-19T00:26:16;11.30;99.90
9103;DHT22;4587;51.434;6.788;2023-05-19T00:28:42;11.30;99.90
9103;DHT22;4587;51.434;6.788;2023-05-19T00:31:07;11.30;99.90
9103;DHT22;4587;51.434;6.788;2023-05-19T00:33:33;11.20;99.90
9103;DHT22;4587;51.434;6.788;2023-05-19T00:36:00;11.20;99.90
9103;DHT22;4587;51.434;6.788;2023-05-19T00:38:31;11.10;99.90
9103;DHT22;4587;51.434;6.788;2023-05-19T00:40:57;11.10;99.90
9103;DHT22;4587;51.434;6.788;2023-05-19T00:43:23;11.10;99.90
9103;DHT22;4587;51.434;6.788;2023-05-19T00:45:50;11.20;99.90
9103;DHT22;4587;51.434;6.788;2023-05-19T00:48:16;11.10;99.90
9103;DHT22;4587;51.434;6.788;2023-05-19T00:50:41;11.10;99.90
9103;DHT22;4587;51.434;6.788;2023-05-19T00:53:07;11.10;99.90
9103;DHT22;4587;51.434;6.788;2023-05-19T00:55:35;11.10;99.90
9103;DHT22;4587;51.434;6.788;2023-05-19T00:58:03;11.00;99.90
9103;DHT22;4587;51.434;6.788;2023-05-19T01:00:29;11.00;99.90
9103;DHT22;4587;51.434;6.788;2023-05-19T01:02:55;11.00;99.90
9103;DHT22;4587;51.434;6.788;2023-05-19T01:05:21;11.00;99.90
9103;DHT22;4587;51.434;6.788;2023-05-19T01:07:47;11.10;99.90
9103;DHT22;4587;51.434;6.788;2023-05-19T01:10:18;11.10;99.90
9103;DHT22;4587;51.434;6.788;2023-05-19T01:12:44;11.10;99.90
9103;DHT22;4587;51.434;6.788;2023-05-19T01:15:10;11.00;99.90
9103;DHT22;4587;51.434;6.788;2023-05-19T01:17:40;11.00;99.90
9103;DHT22;4587;51.434;6.788;2023-05-19T01:31:09;10.80;99.90
9103;DHT22;4587;51.434;6.788;2023-05-19T01:33:37;10.80;99.90
9103;DHT22;4587;51.434;6.788;2023-05-19T01:36:06;10.80;99.90
9103;DHT22;4587;51.434;6.788;2023-05-19T01:38:33;10.70;99.90
9103;DHT22;4587;51.434;6.788;2023-05-19T01:40:59;10.70;99.90
9103;DHT22;4587;51.434;6.788;2023-05-19T01:43:27;10.70;99.90
9103;DHT22;4587;51.434;6.788;2023-05-19T01:45:53;10.60;99.90
9103;DHT22;4587;51.434;6.788;2023-05-19T01:48:20;10.50;99.90
9103;DHT22;4587;51.434;6.788;2023-05-19T01:50:45;10.50;99.90
9103;DHT22;4587;51.434;6.788;2023-05-19T01:53:11;10.40;99.90
9103;DHT22;4587;51.434;6.788;2023-05-19T01:55:45;10.40;99.90
9103;DHT22;4587;51.434;6.788;2023-05-19T01:58:44;10.50;99.90
9103;DHT22;4587;51.434;6.788;2023-05-19T02:06:44;10.30;99.90
9103;DHT22;4587;51.434;6.788;2023-05-19T02:11:54;10.30;99.90
9103;DHT22;4587;51.434;6.788;2023-05-19T02:16:53;10.30;99.90
9103;DHT22;4587;51.434;6.788;2023-05-19T02:19:26;10.30;99.90
9103;DHT22;4587;51.434;6.788;2023-05-19T02:21:52;10.30;99.90
9103;DHT22;4587;51.434;6.788;2023-05-19T02:24:18;10.30;99.90
9103;DHT22;4587;51.434;6.788;2023-05-19T02:26:51;10.20;99.90
9103;DHT22;4587;51.434;6.788;2023-05-19T02:29:17;10.20;99.90
9103;DHT22;4587;51.434;6.788;2023-05-19T02:31:43;10.30;99.90
9103;DHT22;4587;51.434;6.788;2023-05-19T02:34:08;10.30;99.90
9103;DHT22;4587;51.434;6.788;2023-05-19T02:36:34;10.30;99.90
9103;DHT22;4587;51.434;6.788;2023-05-19T02:39:01;10.30;99.90
9103;DHT22;4587;51.434;6.788;2023-05-19T02:41:27;10.40;99.90
9103;DHT22;4587;51.434;6.788;2023-05-19T02:43:53;10.30;99.90
9103;DHT22;4587;51.434;6.788;2023-05-19T02:46:18;10.30;99.90
9103;DHT22;4587;51.434;6.788;2023-05-19T02:48:44;10.30;99.90
9103;DHT22;4587;51.434;6.788;2023-05-19T02:51:10;10.20;99.90
9103;DHT22;4587;51.434;6.788;2023-05-19T02:53:35;10.20;99.90
9103;DHT22;4587;51.434;6.788;2023-05-19T02:56:01;10.20;99.90
9103;DHT22;4587;51.434;6.788;2023-05-19T02:58:27;10.20;99.90
9103;DHT22;4587;51.434;6.788;2023-05-19T03:00:52;10.20;99.90
9103;DHT22;4587;51.434;6.788;2023-05-19T03:03:18;10.20;99.90
9103;DHT22;4587;51.434;6.788;2023-05-19T03:05:44;10.20;99.90
9103;DHT22;4587;51.434;6.788;2023-05-19T03:08:10;10.20;99.90
9103;DHT22;4587;51.434;6.788;2023-05-19T03:10:35;10.00;99.90
9103;DHT22;4587;51.434;6.788;2023-05-19T03:13:01;10.00;99.90
9103;DHT22;4587;51.434;6.788;2023-05-19T03:15:26;10.00;99.90
9103;DHT22;4587;51.434;6.788;2023-05-19T03:17:52;9.90;99.90
9103;DHT22;4587;51.434;6.788;2023-05-19T03:20:18;10.00;99.90
9103;DHT22;4587;51.434;6.788;2023-05-19T03:22:43;9.90;99.90
9103;DHT22;4587;51.434;6.788;2023-05-19T03:25:09;9.90;99.90
9103;DHT22;4587;51.434;6.788;2023-05-19T03:27:34;9.90;99.90
9103;DHT22;4587;51.434;6.788;2023-05-19T03:30:00;9.90;99.90
9103;DHT22;4587;51.434;6.788;2023-05-19T03:32:26;9.90;99.90
9103;DHT22;4587;51.434;6.788;2023-05-19T03:34:51;9.90;99.90
9103;DHT22;4587;51.434;6.788;2023-05-19T03:37:17;9.90;99.90
9103;DHT22;4587;51.434;6.788;2023-05-19T03:39:43;9.90;99.90
9103;DHT22;4587;51.434;6.788;2023-05-19T03:42:08;9.90;99.90
9103;DHT22;4587;51.434;6.788;2023-05-19T03:44:34;9.80;99.90
9103;DHT22;4587;51.434;6.788;2023-05-19T03:46:59;9.90;99.90
9103;DHT22;4587;51.434;6.788;2023-05-19T03:49:25;9.80;99.90
9103;DHT22;4587;51.434;6.788;2023-05-19T03:51:50;9.80;99.90
9103;DHT22;4587;51.434;6.788;2023-05-19T03:54:16;9.80;99.90
9103;DHT22;4587;51.434;6.788;2023-05-19T03:56:42;9.90;99.90
9103;DHT22;4587;51.434;6.788;2023-05-19T03:59:07;9.80;99.90
9103;DHT22;4587;51.434;6.788;2023-05-19T04:01:35;9.80;99.90
9103;DHT22;4587;51.434;6.788;2023-05-19T04:04:01;9.80;99.90
9103;DHT22;4587;51.434;6.788;2023-05-19T04:06:27;9.70;99.90
9103;DHT22;4587;51.434;6.788;2023-05-19T04:08:52;9.80;99.90
9103;DHT22;4587;51.434;6.788;2023-05-19T04:11:18;9.80;99.90
9103;DHT22;4587;51.434;6.788;2023-05-19T04:13:44;9.80;99.90
9103;DHT22;4587;51.434;6.788;2023-05-19T04:16:10;9.90;99.90
9103;DHT22;4587;51.434;6.788;2023-05-19T04:18:35;9.90;99.90
9103;DHT22;4587;51.434;6.788;2023-05-19T04:21:01;9.80;99.90
9103;DHT22;4587;51.434;6.788;2023-05-19T04:23:26;9.80;99.90
9103;DHT22;4587;51.434;6.788;2023-05-19T04:25:52;9.80;99.90
9103;DHT22;4587;51.434;6.788;2023-05-19T04:28:18;9.80;99.90
9103;DHT22;4587;51.434;6.788;2023-05-19T04:30:44;9.70;99.90
9103;DHT22;4587;51.434;6.788;2023-05-19T04:33:12;9.80;99.90
9103;DHT22;4587;51.434;6.788;2023-05-19T04:35:38;9.80;99.90
9103;DHT22;4587;51.434;6.788;2023-05-19T04:38:04;9.80;99.90
9103;DHT22;4587;51.434;6.788;2023-05-19T04:40:30;9.80;99.90
9103;DHT22;4587;51.434;6.788;2023-05-19T04:42:56;9.90;99.90
9103;DHT22;4587;51.434;6.788;2023-05-19T04:45:24;9.80;99.90
9103;DHT22;4587;51.434;6.788;2023-05-19T04:50:16;10.00;99.90
9103;DHT22;4587;51.434;6.788;2023-05-19T04:52:42;9.90;99.90
9103;DHT22;4587;51.434;6.788;2023-05-19T04:55:10;10.00;99.90
9103;DHT22;4587;51.434;6.788;2023-05-19T05:00:02;10.10;99.90
9103;DHT22;4587;51.434;6.788;2023-05-19T05:04:58;10.20;99.90
9103;DHT22;4587;51.434;6.788;2023-05-19T05:07:24;10.20;99.90
9103;DHT22;4587;51.434;6.788;2023-05-19T05:12:17;10.30;99.90
9103;DHT22;4587;51.434;6.788;2023-05-19T05:17:10;10.60;99.90
9103;DHT22;4587;51.434;6.788;2023-05-19T05:24:29;11.40;99.90
9103;DHT22;4587;51.434;6.788;2023-05-19T05:26:56;11.90;99.90
9103;DHT22;4587;51.434;6.788;2023-05-19T05:29:23;12.30;99.90
9103;DHT22;4587;51.434;6.788;2023-05-19T05:31:49;12.30;99.90
9103;DHT22;4587;51.434;6.788;2023-05-19T05:34:14;12.40;99.90
9103;DHT22;4587;51.434;6.788;2023-05-19T05:36:40;12.40;99.90
9103;DHT22;4587;51.434;6.788;2023-05-19T05:39:05;12.30;99.90
9103;DHT22;4587;51.434;6.788;2023-05-19T05:41:34;12.10;99.90
9103;DHT22;4587;51.434;6.788;2023-05-19T05:44:01;12.00;99.90
9103;DHT22;4587;51.434;6.788;2023-05-19T05:46:26;11.90;99.90
9103;DHT22;4587;51.434;6.788;2023-05-19T05:48:52;11.80;99.90
9103;DHT22;4587;51.434;6.788;2023-05-19T05:51:20;11.70;99.90
9103;DHT22;4587;51.434;6.788;2023-05-19T05:53:53;11.70;99.90
9103;DHT22;4587;51.434;6.788;2023-05-19T05:56:20;11.70;99.90
9103;DHT22;4587;51.434;6.788;2023-05-19T05:58:45;11.80;99.90
9103;DHT22;4587;51.434;6.788;2023-05-19T06:01:11;11.90;99.90
9103;DHT22;4587;51.434;6.788;2023-05-19T06:03:41;12.20;99.90
9103;DHT22;4587;51.434;6.788;2023-05-19T06:06:09;12.40;99.90
9103;DHT22;4587;51.434;6.788;2023-05-19T06:08:36;12.50;99.90
9103;DHT22;4587;51.434;6.788;2023-05-19T06:11:02;12.70;99.90
9103;DHT22;4587;51.434;6.788;2023-05-19T06:13:36;12.70;99.90
9103;DHT22;4587;51.434;6.788;2023-05-19T06:16:02;12.80;99.90
9103;DHT22;4587;51.434;6.788;2023-05-19T06:18:28;13.00;99.90
9103;DHT22;4587;51.434;6.788;2023-05-19T06:20:54;13.00;99.90
9103;DHT22;4587;51.434;6.788;2023-05-19T06:23:19;13.00;99.90
9103;DHT22;4587;51.434;6.788;2023-05-19T06:25:45;12.90;99.90
9103;DHT22;4587;51.434;6.788;2023-05-19T06:28:10;12.90;99.90
9103;DHT22;4587;51.434;6.788;2023-05-19T06:30:36;13.00;99.90
9103;DHT22;4587;51.434;6.788;2023-05-19T06:33:02;13.10;99.90
9103;DHT22;4587;51.434;6.788;2023-05-19T06:35:28;13.80;99.90
9103;DHT22;4587;51.434;6.788;2023-05-19T06:37:54;14.70;99.90
9103;DHT22;4587;51.434;6.788;2023-05-19T06:40:21;16.40;99.90
9103;DHT22;4587;51.434;6.788;2023-05-19T06:42:47;18.00;99.90
9103;DHT22;4587;51.434;6.788;2023-05-19T06:45:12;19.30;99.90
9103;DHT22;4587;51.434;6.788;2023-05-19T06:47:38;20.60;97.70
9103;DHT22;4587;51.434;6.788;2023-05-19T06:50:09;21.30;95.20
9103;DHT22;4587;51.434;6.788;2023-05-19T06:52:36;22.20;93.20
9103;DHT22;4587;51.434;6.788;2023-05-19T06:55:02;22.60;91.20
9103;DHT22;4587;51.434;6.788;2023-05-19T06:57:28;23.20;90.20
9103;DHT22;4587;51.434;6.788;2023-05-19T06:59:53;23.80;86.50
9103;DHT22;4587;51.434;6.788;2023-05-19T07:02:19;24.20;82.40
9103;DHT22;4587;51.434;6.788;2023-05-19T07:04:44;24.40;80.10
9103;DHT22;4587;51.434;6.788;2023-05-19T07:07:10;24.50;77.30
9103;DHT22;4587;51.434;6.788;2023-05-19T07:09:35;24.90;75.40
9103;DHT22;4587;51.434;6.788;2023-05-19T07:12:01;25.10;75.20
9103;DHT22;4587;51.434;6.788;2023-05-19T07:14:26;25.20;73.10
9103;DHT22;4587;51.434;6.788;2023-05-19T07:16:52;25.40;70.80
9103;DHT22;4587;51.434;6.788;2023-05-19T07:19:18;25.70;68.60
9103;DHT22;4587;51.434;6.788;2023-05-19T07:21:45;25.30;67.70
9103;DHT22;4587;51.434;6.788;2023-05-19T07:24:10;24.90;70.00
9103;DHT22;4587;51.434;6.788;2023-05-19T07:26:36;24.80;68.50
9103;DHT22;4587;51.434;6.788;2023-05-19T07:29:01;25.10;69.90
9103;DHT22;4587;51.434;6.788;2023-05-19T07:31:27;25.60;69.80
9103;DHT22;4587;51.434;6.788;2023-05-19T07:33:53;25.90;66.10
9103;DHT22;4587;51.434;6.788;2023-05-19T07:36:18;26.10;64.70
9103;DHT22;4587;51.434;6.788;2023-05-19T07:38:45;26.60;64.10
9103;DHT22;4587;51.434;6.788;2023-05-19T07:41:10;26.30;61.10
9103;DHT22;4587;51.434;6.788;2023-05-19T07:43:36;26.30;62.70
9103;DHT22;4587;51.434;6.788;2023-05-19T07:46:02;26.20;60.70
9103;DHT22;4587;51.434;6.788;2023-05-19T07:48:27;26.70;60.70
9103;DHT22;4587;51.434;6.788;2023-05-19T07:50:55;27.10;61.40
9103;DHT22;4587;51.434;6.788;2023-05-19T07:53:20;27.50;59.40
9103;DHT22;4587;51.434;6.788;2023-05-19T07:55:47;28.10;58.40
9103;DHT22;4587;51.434;6.788;2023-05-19T07:58:13;28.20;57.30
9103;DHT22;4587;51.434;6.788;2023-05-19T08:00:39;27.90;56.00
9103;DHT22;4587;51.434;6.788;2023-05-19T08:03:10;27.70;56.70
9103;DHT22;4587;51.434;6.788;2023-05-19T08:05:36;29.20;57.60
9103;DHT22;4587;51.434;6.788;2023-05-19T08:08:02;27.50;55.50
9103;DHT22;4587;51.434;6.788;2023-05-19T08:10:28;26.60;56.40
9103;DHT22;4587;51.434;6.788;2023-05-19T08:12:53;25.30;56.80
9103;DHT22;4587;51.434;6.788;2023-05-19T08:15:20;23.80;58.00
9103;DHT22;4587;51.434;6.788;2023-05-19T08:17:46;23.20;60.10
9103;DHT22;4587;51.434;6.788;2023-05-19T08:20:11;22.40;61.90
9103;DHT22;4587;51.434;6.788;2023-05-19T08:22:37;22.40;63.70
9103;DHT22;4587;51.434;6.788;2023-05-19T08:25:03;22.30;62.90
9103;DHT22;4587;51.434;6.788;2023-05-19T08:27:30;21.80;63.60
9103;DHT22;4587;51.434;6.788;2023-05-19T08:29:56;21.60;65.80
9103;DHT22;4587;51.434;6.788;2023-05-19T08:32:21;22.60;68.00
9103;DHT22;4587;51.434;6.788;2023-05-19T08:34:47;21.40;65.70
9103;DHT22;4587;51.434;6.788;2023-05-19T08:37:13;21.40;66.80
9103;DHT22;4587;51.434;6.788;2023-05-19T08:39:38;21.30;64.50
9103;DHT22;4587;51.434;6.788;2023-05-19T08:42:04;21.20;66.70
9103;DHT22;4587;51.434;6.788;2023-05-19T08:44:32;21.30;67.70
9103;DHT22;4587;51.434;6.788;2023-05-19T08:47:01;21.20;67.50
9103;DHT22;4587;51.434;6.788;2023-05-19T08:49:27;21.30;68.20
9103;DHT22;4587;51.434;6.788;2023-05-19T08:52:24;21.20;67.20
9103;DHT22;4587;51.434;6.788;2023-05-19T08:54:54;21.10;68.90
9103;DHT22;4587;51.434;6.788;2023-05-19T08:57:25;21.10;67.80
9103;DHT22;4587;51.434;6.788;2023-05-19T08:59:51;21.50;69.30
9103;DHT22;4587;51.434;6.788;2023-05-19T09:02:18;21.20;66.50
9103;DHT22;4587;51.434;6.788;2023-05-19T09:04:44;21.00;72.50
9103;DHT22;4587;51.434;6.788;2023-05-19T09:07:13;21.10;68.60
9103;DHT22;4587;51.434;6.788;2023-05-19T09:09:39;21.30;66.20
9103;DHT22;4587;51.434;6.788;2023-05-19T09:12:11;21.10;67.00
9103;DHT22;4587;51.434;6.788;2023-05-19T09:14:37;21.10;65.90
9103;DHT22;4587;51.434;6.788;2023-05-19T09:17:03;21.10;67.30
9103;DHT22;4587;51.434;6.788;2023-05-19T09:19:29;21.00;64.30
9103;DHT22;4587;51.434;6.788;2023-05-19T09:22:01;20.80;64.50
9103;DHT22;4587;51.434;6.788;2023-05-19T09:24:30;20.80;65.80
9103;DHT22;4587;51.434;6.788;2023-05-19T09:26:58;20.80;67.10
9103;DHT22;4587;51.434;6.788;2023-05-19T09:29:23;20.80;63.70
9103;DHT22;4587;51.434;6.788;2023-05-19T09:31:51;20.70;65.30
9103;DHT22;4587;51.434;6.788;2023-05-19T09:34:21;20.80;65.50
9103;DHT22;4587;51.434;6.788;2023-05-19T09:36:49;20.80;64.70
9103;DHT22;4587;51.434;6.788;2023-05-19T09:39:17;20.80;65.40
9103;DHT22;4587;51.434;6.788;2023-05-19T09:41:43;20.80;65.70
9103;DHT22;4587;51.434;6.788;2023-05-19T09:44:19;21.00;66.30
9103;DHT22;4587;51.434;6.788;2023-05-19T09:46:47;21.20;68.00
9103;DHT22;4587;51.434;6.788;2023-05-19T09:49:16;21.30;65.50
9103;DHT22;4587;51.434;6.788;2023-05-19T09:51:43;21.30;66.00
9103;DHT22;4587;51.434;6.788;2023-05-19T09:54:14;21.20;65.00
9103;DHT22;4587;51.434;6.788;2023-05-19T09:56:40;21.10;65.00
9103;DHT22;4587;51.434;6.788;2023-05-19T09:59:06;21.10;65.00
9103;DHT22;4587;51.434;6.788;2023-05-19T10:01:32;21.10;66.70
9103;DHT22;4587;51.434;6.788;2023-05-19T10:03:59;21.10;65.40
9103;DHT22;4587;51.434;6.788;2023-05-19T10:06:25;21.10;64.30
9103;DHT22;4587;51.434;6.788;2023-05-19T10:08:51;21.00;66.20
9103;DHT22;4587;51.434;6.788;2023-05-19T10:11:17;21.00;65.90
9103;DHT22;4587;51.434;6.788;2023-05-19T10:13:44;21.10;66.10
9103;DHT22;4587;51.434;6.788;2023-05-19T10:16:11;21.30;68.00
9103;DHT22;4587;51.434;6.788;2023-05-19T10:18:38;21.30;64.20
9103;DHT22;4587;51.434;6.788;2023-05-19T10:21:06;21.20;64.70
9103;DHT22;4587;51.434;6.788;2023-05-19T10:23:31;21.10;65.90
9103;DHT22;4587;51.434;6.788;2023-05-19T10:25:59;21.00;65.00
9103;DHT22;4587;51.434;6.788;2023-05-19T10:28:33;21.10;66.30
9103;DHT22;4587;51.434;6.788;2023-05-19T10:31:00;21.00;64.00
9103;DHT22;4587;51.434;6.788;2023-05-19T10:39:06;21.00;64.80
9103;DHT22;4587;51.434;6.788;2023-05-19T10:51:54;20.90;64.60
9103;DHT22;4587;51.434;6.788;2023-05-19T10:54:42;20.80;64.80
9103;DHT22;4587;51.434;6.788;2023-05-19T10:57:15;20.80;64.00
9103;DHT22;4587;51.434;6.788;2023-05-19T10:59:41;20.80;64.00
9103;DHT22;4587;51.434;6.788;2023-05-19T11:02:09;20.90;63.00
9103;DHT22;4587;51.434;6.788;2023-05-19T11:04:53;20.90;62.10
9103;DHT22;4587;51.434;6.788;2023-05-19T11:07:22;20.80;63.90
9103;DHT22;4587;51.434;6.788;2023-05-19T11:09:50;20.80;62.90
9103;DHT22;4587;51.434;6.788;2023-05-19T11:12:19;20.80;64.80
9103;DHT22;4587;51.434;6.788;2023-05-19T11:14:46;20.90;64.30
9103;DHT22;4587;51.434;6.788;2023-05-19T11:17:15;20.90;63.50
9103;DHT22;4587;51.434;6.788;2023-05-19T11:19:56;20.90;62.20
9103;DHT22;4587;51.434;6.788;2023-05-19T11:22:23;20.80;61.20
9103;DHT22;4587;51.434;6.788;2023-05-19T11:24:50;20.90;62.00
9103;DHT22;4587;51.434;6.788;2023-05-19T11:27:19;21.00;64.20
9103;DHT22;4587;51.434;6.788;2023-05-19T11:29:45;21.00;65.30
9103;DHT22;4587;51.434;6.788;2023-05-19T11:32:12;21.10;65.90
9103;DHT22;4587;51.434;6.788;2023-05-19T11:34:39;21.00;65.10
9103;DHT22;4587;51.434;6.788;2023-05-19T11:37:05;21.00;64.50
9103;DHT22;4587;51.434;6.788;2023-05-19T11:39:31;20.80;65.20
9103;DHT22;4587;51.434;6.788;2023-05-19T11:41:57;20.90;65.00
9103;DHT22;4587;51.434;6.788;2023-05-19T11:44:22;20.90;64.40
9103;DHT22;4587;51.434;6.788;2023-05-19T11:46:48;20.80;65.00
9103;DHT22;4587;51.434;6.788;2023-05-19T11:49:14;20.80;65.70
9103;DHT22;4587;51.434;6.788;2023-05-19T11:51:42;20.90;66.70
9103;DHT22;4587;51.434;6.788;2023-05-19T11:54:09;21.00;64.90
9103;DHT22;4587;51.434;6.788;2023-05-19T11:56:39;20.90;62.10
9103;DHT22;4587;51.434;6.788;2023-05-19T11:59:05;20.60;61.40
9103;DHT22;4587;51.434;6.788;2023-05-19T12:01:31;20.70;64.50
9103;DHT22;4587;51.434;6.788;2023-05-19T12:03:57;20.80;64.40
9103;DHT22;4587;51.434;6.788;2023-05-19T12:06:24;20.80;62.20
9103;DHT22;4587;51.434;6.788;2023-05-19T12:08:51;20.80;64.20
9103;DHT22;4587;51.434;6.788;2023-05-19T12:11:17;20.90;65.80
9103;DHT22;4587;51.434;6.788;2023-05-19T12:13:43;21.00;65.10
9103;DHT22;4587;51.434;6.788;2023-05-19T12:16:09;21.00;64.10
9103;DHT22;4587;51.434;6.788;2023-05-19T12:18:38;20.90;64.00
9103;DHT22;4587;51.434;6.788;2023-05-19T12:21:05;21.00;64.50
9103;DHT22;4587;51.434;6.788;2023-05-19T12:23:31;20.90;63.00
9103;DHT22;4587;51.434;6.788;2023-05-19T12:25:58;20.90;64.00
9103;DHT22;4587;51.434;6.788;2023-05-19T12:28:24;20.90;64.50
9103;DHT22;4587;51.434;6.788;2023-05-19T12:30:50;20.80;63.70
9103;DHT22;4587;51.434;6.788;2023-05-19T12:33:17;20.80;63.90
9103;DHT22;4587;51.434;6.788;2023-05-19T12:35:45;20.80;65.10
9103;DHT22;4587;51.434;6.788;2023-05-19T12:38:13;20.80;64.40
9103;DHT22;4587;51.434;6.788;2023-05-19T12:40:39;20.80;65.50
9103;DHT22;4587;51.434;6.788;2023-05-19T12:43:04;20.80;65.10
9103;DHT22;4587;51.434;6.788;2023-05-19T12:45:34;20.70;63.70
9103;DHT22;4587;51.434;6.788;2023-05-19T12:48:04;20.80;63.70
9103;DHT22;4587;51.434;6.788;2023-05-19T12:50:36;20.90;63.40
9103;DHT22;4587;51.434;6.788;2023-05-19T12:53:02;21.00;63.20
9103;DHT22;4587;51.434;6.788;2023-05-19T12:55:38;21.00;64.70
9103;DHT22;4587;51.434;6.788;2023-05-19T12:58:06;21.00;62.20
9103;DHT22;4587;51.434;6.788;2023-05-19T13:00:32;20.90;63.40
9103;DHT22;4587;51.434;6.788;2023-05-19T13:03:03;20.90;63.30
9103;DHT22;4587;51.434;6.788;2023-05-19T13:05:32;21.00;63.10
9103;DHT22;4587;51.434;6.788;2023-05-19T13:08:00;21.00;65.50
9103;DHT22;4587;51.434;6.788;2023-05-19T13:10:29;21.10;64.10
9103;DHT22;4587;51.434;6.788;2023-05-19T13:12:56;21.10;64.00
9103;DHT22;4587;51.434;6.788;2023-05-19T13:15:23;21.20;64.10
9103;DHT22;4587;51.434;6.788;2023-05-19T13:17:51;21.30;65.90
9103;DHT22;4587;51.434;6.788;2023-05-19T13:20:17;21.20;63.60
9103;DHT22;4587;51.434;6.788;2023-05-19T13:22:42;21.20;64.30
9103;DHT22;4587;51.434;6.788;2023-05-19T13:25:08;21.20;63.90
9103;DHT22;4587;51.434;6.788;2023-05-19T13:27:34;21.20;65.30
9103;DHT22;4587;51.434;6.788;2023-05-19T13:30:00;21.30;65.00
9103;DHT22;4587;51.434;6.788;2023-05-19T13:32:26;21.20;65.20
9103;DHT22;4587;51.434;6.788;2023-05-19T13:34:51;21.20;64.40
9103;DHT22;4587;51.434;6.788;2023-05-19T13:37:17;21.30;64.50
9103;DHT22;4587;51.434;6.788;2023-05-19T13:39:42;21.40;64.60
9103;DHT22;4587;51.434;6.788;2023-05-19T13:42:08;21.50;64.40
9103;DHT22;4587;51.434;6.788;2023-05-19T13:44:33;21.50;61.90
9103;DHT22;4587;51.434;6.788;2023-05-19T13:46:59;21.40;62.30
9103;DHT22;4587;51.434;6.788;2023-05-19T13:49:25;21.40;62.80
9103;DHT22;4587;51.434;6.788;2023-05-19T13:51:54;21.40;62.40
9103;DHT22;4587;51.434;6.788;2023-05-19T13:54:19;21.30;61.80
9103;DHT22;4587;51.434;6.788;2023-05-19T13:56:45;21.40;62.10
9103;DHT22;4587;51.434;6.788;2023-05-19T13:59:13;21.30;63.90
9103;DHT22;4587;51.434;6.788;2023-05-19T14:01:38;21.30;62.70
9103;DHT22;4587;51.434;6.788;2023-05-19T14:04:04;21.20;62.40
9103;DHT22;4587;51.434;6.788;2023-05-19T14:06:30;21.30;63.80
9103;DHT22;4587;51.434;6.788;2023-05-19T14:08:55;21.30;62.30
9103;DHT22;4587;51.434;6.788;2023-05-19T14:11:21;21.40;63.20
9103;DHT22;4587;51.434;6.788;2023-05-19T14:13:50;21.50;63.00
9103;DHT22;4587;51.434;6.788;2023-05-19T14:16:16;21.50;63.70
9103;DHT22;4587;51.434;6.788;2023-05-19T14:18:42;21.50;63.40
9103;DHT22;4587;51.434;6.788;2023-05-19T14:21:08;21.50;61.60
9103;DHT22;4587;51.434;6.788;2023-05-19T14:23:33;21.50;61.30
9103;DHT22;4587;51.434;6.788;2023-05-19T14:25:59;21.50;61.10
9103;DHT22;4587;51.434;6.788;2023-05-19T14:28:25;21.50;61.20
9103;DHT22;4587;51.434;6.788;2023-05-19T14:30:50;21.50;62.80
9103;DHT22;4587;51.434;6.788;2023-05-19T14:33:16;21.50;61.10
9103;DHT22;4587;51.434;6.788;2023-05-19T14:35:43;21.40;61.80
9103;DHT22;4587;51.434;6.788;2023-05-19T14:38:09;21.50;62.00
9103;DHT22;4587;51.434;6.788;2023-05-19T14:40:36;21.50;63.40
9103;DHT22;4587;51.434;6.788;2023-05-19T14:43:02;21.50;63.60
9103;DHT22;4587;51.434;6.788;2023-05-19T14:45:27;21.60;63.70
9103;DHT22;4587;51.434;6.788;2023-05-19T14:47:53;21.60;62.00
9103;DHT22;4587;51.434;6.788;2023-05-19T14:50:19;21.60;62.90
9103;DHT22;4587;51.434;6.788;2023-05-19T14:52:44;21.50;64.00
9103;DHT22;4587;51.434;6.788;2023-05-19T14:55:10;21.50;64.50
9103;DHT22;4587;51.434;6.788;2023-05-19T14:57:35;21.60;65.60
9103;DHT22;4587;51.434;6.788;2023-05-19T15:00:01;21.60;63.40
9103;DHT22;4587;51.434;6.788;2023-05-19T15:02:26;21.60;62.20
9103;DHT22;4587;51.434;6.788;2023-05-19T15:04:52;21.60;61.80
9103;DHT22;4587;51.434;6.788;2023-05-19T15:07:18;21.60;63.40
9103;DHT22;4587;51.434;6.788;2023-05-19T15:09:43;21.50;62.90
9103;DHT22;4587;51.434;6.788;2023-05-19T15:12:09;21.50;64.20
9103;DHT22;4587;51.434;6.788;2023-05-19T15:14:34;21.50;63.40
9103;DHT22;4587;51.434;6.788;2023-05-19T15:17:00;21.40;63.20
9103;DHT22;4587;51.434;6.788;2023-05-19T15:19:25;21.30;63.40
9103;DHT22;4587;51.434;6.788;2023-05-19T15:21:51;21.30;63.40
9103;DHT22;4587;51.434;6.788;2023-05-19T15:24:16;21.30;63.30
9103;DHT22;4587;51.434;6.788;2023-05-19T15:26:42;21.30;64.50
9103;DHT22;4587;51.434;6.788;2023-05-19T15:29:08;21.30;64.40
9103;DHT22;4587;51.434;6.788;2023-05-19T15:31:33;21.30;64.40
9103;DHT22;4587;51.434;6.788;2023-05-19T15:33:59;21.30;63.40
9103;DHT22;4587;51.434;6.788;2023-05-19T15:36:24;21.30;63.40
9103;DHT22;4587;51.434;6.788;2023-05-19T15:38:50;21.30;63.40
9103;DHT22;4587;51.434;6.788;2023-05-19T15:41:16;21.30;64.60
9103;DHT22;4587;51.434;6.788;2023-05-19T15:43:41;21.30;64.20
9103;DHT22;4587;51.434;6.788;2023-05-19T15:46:07;21.30;64.30
9103;DHT22;4587;51.434;6.788;2023-05-19T15:48:32;21.40;64.30
9103;DHT22;4587;51.434;6.788;2023-05-19T15:50:58;21.40;63.90
9103;DHT22;4587;51.434;6.788;2023-05-19T15:53:24;21.40;64.90
9103;DHT22;4587;51.434;6.788;2023-05-19T15:55:50;21.50;64.40
9103;DHT22;4587;51.434;6.788;2023-05-19T15:58:16;21.40;64.60
9103;DHT22;4587;51.434;6.788;2023-05-19T16:00:42;21.30;64.40
9103;DHT22;4587;51.434;6.788;2023-05-19T16:03:08;21.30;64.60
9103;DHT22;4587;51.434;6.788;2023-05-19T16:05:33;21.20;64.40
9103;DHT22;4587;51.434;6.788;2023-05-19T16:07:59;21.20;65.30
9103;DHT22;4587;51.434;6.788;2023-05-19T16:10:24;20.90;65.30
9103;DHT22;4587;51.434;6.788;2023-05-19T16:12:50;20.90;65.90
9103;DHT22;4587;51.434;6.788;2023-05-19T16:15:16;21.00;65.60
9103;DHT22;4587;51.434;6.788;2023-05-19T16:17:41;20.90;66.00
9103;DHT22;4587;51.434;6.788;2023-05-19T16:20:07;20.90;67.10
9103;DHT22;4587;51.434;6.788;2023-05-19T16:22:33;21.00;66.40
9103;DHT22;4587;51.434;6.788;2023-05-19T16:24:58;20.90;66.40
9103;DHT22;4587;51.434;6.788;2023-05-19T16:27:24;20.90;66.50
9103;DHT22;4587;51.434;6.788;2023-05-19T16:29:50;20.90;65.50
9103;DHT22;4587;51.434;6.788;2023-05-19T16:32:15;20.90;64.80
9103;DHT22;4587;51.434;6.788;2023-05-19T16:34:41;20.80;64.00
9103;DHT22;4587;51.434;6.788;2023-05-19T16:37:06;20.70;64.90
9103;DHT22;4587;51.434;6.788;2023-05-19T16:39:34;20.70;65.00
9103;DHT22;4587;51.434;6.788;2023-05-19T16:42:01;20.50;64.20
9103;DHT22;4587;51.434;6.788;2023-05-19T16:44:26;20.40;64.80
9103;DHT22;4587;51.434;6.788;2023-05-19T16:46:52;20.40;65.10
9103;DHT22;4587;51.434;6.788;2023-05-19T16:49:17;20.50;65.10
9103;DHT22;4587;51.434;6.788;2023-05-19T16:51:43;20.40;65.20
9103;DHT22;4587;51.434;6.788;2023-05-19T16:54:08;20.50;65.90